Latest Coastal Weather Observations for Yarram Airport

IDV60701

Issued at 3:01 pm EST Monday 30 May 2016 (issued every 10 minutes, with the page automatically refreshed every 10 minutes)

About coastal observations | Map of coastal stations | Coastal observations for VIC | Marine services | Other Formats
Station Details ID: 085151 Name: YARRAM AIRPORT Lat: -38.56 Lon: 146.75 Height: 17.9 m
Data from the previous 72 hours. | See also: Recent months at Yarram Airport
Date/Time
EST
Temp

°C
Wind Pressure Rain
since 9am
mm
Weather Cloud Vis
km
Sea
Height
m
Swell
Dir
 
Speed
knots
Gust
knots
hPa Trend Height
m
Period
s
Dir
30/03:00pm 13.5 SSE 8 9 1026.5 - 0.0 - - - - - - -
30/02:30pm 14.2 SE 6 9 1026.3 - 0.0 - - - - - - -
30/02:00pm 13.3 SSE 7 9 1026.5 - 0.0 - - - - - - -
30/01:30pm 13.8 SSE 6 8 1026.6 - 0.0 - - - - - - -
30/01:00pm 14.0 SE 3 6 1026.6 - 0.0 - - - - - - -
30/12:30pm 13.7 CALM 0 0 1026.7 - 0.0 - - - - - - -
30/12:00pm 13.6 WSW 3 5 1026.9 - 0.0 - - - - - - -
30/11:30am 13.1 SW 5 7 1027.1 - 0.0 - - - - - - -
30/11:00am 12.2 WSW 4 5 1027.3 - 0.0 - - - - - - -
30/10:30am 11.9 CALM 0 4 1027.4 - 0.0 - - - - - - -
30/10:00am 10.9 N 2 4 1027.3 - 0.0 - - - - - - -
30/09:30am 8.9 NW 4 5 1027.1 - 0.0 - - - - - - -
30/09:00am 7.3 CALM 0 0 1026.9 - 0.0 - - - - - - -
30/08:30am 4.5 W 5 5 1026.6 - 0.0 - - - - - - -
30/08:00am 3.4 WNW 3 4 1026.3 - 0.0 - - - - - - -
30/07:30am 2.7 NW 6 7 1025.8 - 0.0 - - - - - - -
30/07:00am 3.4 NW 7 8 1025.6 - 0.0 - - - - - - -
30/06:30am 2.9 WNW 5 6 1025.3 - 0.0 - - - - - - -
30/06:00am 2.6 WNW 5 6 1024.9 - 0.0 - - - - - - -
30/05:30am 2.4 NW 7 8 1024.6 - 0.0 - - - - - - -
30/05:00am 2.3 NW 5 6 1024.4 - 0.0 - - - - - - -
30/04:30am 3.6 WNW 5 6 1024.1 - 0.0 - - - - - - -
30/04:00am 4.0 WNW 6 6 1023.8 - 0.0 - - - - - - -
30/03:30am 3.8 WNW 6 7 1023.7 - 0.0 - - - - - - -
30/03:00am 4.5 W 6 7 1023.5 - 0.0 - - - - - - -
30/02:30am 5.0 WNW 8 8 1023.3 - 0.0 - - - - - - -
30/02:00am 5.2 WNW 7 8 1023.2 - 0.0 - - - - - - -
30/01:30am 5.8 WNW 7 8 1023.0 - 0.0 - - - - - - -
30/01:00am 5.0 WNW 7 8 1022.8 - 0.0 - - - - - - -
30/12:30am 5.5 WNW 6 7 1022.9 - 0.0 - - - - - - -
30/12:00am 6.1 WNW 7 8 1022.8 - 0.0 - - - - - - -
 
Date/Time
EST
Temp

°C
Wind Pressure Rain
since 9am
mm
Weather Cloud Vis
km
Sea
Height
m
Swell
Dir
 
Speed
knots
Gust
knots
hPa Trend Height
m
Period
s
Dir
29/11:30pm 5.9 WNW 6 8 1022.6 - 0.0 - - - - - - -
29/11:00pm 5.8 NW 6 7 1022.7 - 0.0 - - - - - - -
29/10:30pm 6.2 NW 6 8 1022.6 - 0.0 - - - - - - -
29/10:00pm 6.9 WNW 9 10 1022.3 - 0.0 - - - - - - -
29/09:30pm 6.6 WNW 7 8 1022.2 - 0.0 - - - - - - -
29/09:00pm 7.2 W 8 9 1022.1 - 0.0 - - - - - - -
29/08:30pm 7.4 W 7 9 1021.9 - 0.0 - - - - - - -
29/08:00pm 8.6 W 9 10 1021.7 - 0.0 - - - - - - -
29/07:30pm 8.0 W 8 9 1021.2 - 0.0 - - - - - - -
29/07:00pm 8.3 WNW 7 8 1020.8 - 0.0 - - - - - - -
29/06:30pm 7.8 WNW 8 9 1020.4 - 0.0 - - - - - - -
29/06:00pm 8.6 WNW 7 9 1020.0 - 0.0 - - - - - - -
29/05:30pm 9.4 WNW 9 11 1019.6 - 0.0 - - - - - - -
29/05:00pm 10.5 W 10 15 1019.4 - 0.0 - - - - - - -
29/04:30pm 11.3 W 12 17 1019.0 - 0.0 - - - - - - -
29/04:00pm 12.2 W 13 15 1018.8 - 0.0 - - - - - - -
29/03:30pm 11.5 WSW 13 19 1018.6 - 0.0 - - - - - - -
29/03:00pm 11.9 WSW 14 19 1018.5 - 0.0 - - - - - - -
29/02:30pm 13.5 W 14 18 1018.1 - 0.0 - - - - - - -
29/02:00pm 13.5 WSW 16 24 1017.9 - 0.0 - - - - - - -
29/01:30pm 14.3 WSW 15 23 1017.6 - 0.0 - - - - - - -
29/01:00pm 13.6 WSW 17 22 1017.6 - 0.0 - - - - - - -
29/12:30pm 13.0 WSW 15 20 1017.4 - 0.0 - - - - - - -
29/12:00pm 13.1 W 16 22 1017.6 - 0.0 - - - - - - -
29/11:30am 12.9 W 14 21 1017.7 - 0.0 - - - - - - -
29/11:14am 12.7 W 17 27 1017.8 - 0.0 - - - - - - -
29/11:00am 13.3 WSW 15 22 1017.8 - 0.0 - - - - - - -
29/10:30am 11.6 W 10 15 1017.8 - 0.0 - - - - - - -
29/10:00am 11.2 W 15 21 1017.5 - 0.0 - - - - - - -
29/09:30am 10.9 W 14 20 1017.3 - 0.0 - - - - - - -
29/09:00am 10.6 W 12 16 1017.0 - 2.8 - - - - - - -
29/08:30am 10.4 W 13 20 1016.7 - 2.8 - - - - - - -
29/08:00am 9.8 W 12 15 1016.2 - 2.8 - - - - - - -
29/07:30am 10.1 W 12 16 1016.2 - 2.6 - - - - - - -
29/07:00am 9.9 W 14 17 1015.5 - 2.6 - - - - - - -
29/06:30am 10.0 W 13 19 1015.5 - 2.6 - - - - - - -
29/06:00am 9.8 W 12 16 1015.2 - 2.6 Recent precip. - - - - - -
29/05:30am 10.1 W 12 18 1015.2 - 2.4 - - - - - - -
29/05:00am 10.4 W 12 16 1014.6 - 2.4 - - - - - - -
29/04:30am 10.1 W 11 15 1014.5 - 2.4 - - - - - - -
29/04:00am 10.0 WSW 11 15 1014.2 - 1.6 - - - - - - -
29/03:30am 9.9 W 14 19 1014.1 - 1.2 - - - - - - -
29/03:00am 9.6 W 14 17 1013.8 - 0.6 - - - - - - -
29/02:30am 9.9 W 13 19 1013.7 - 0.6 - - - - - - -
29/02:00am 9.6 W 13 17 1013.5 - 0.6 - - - - - - -
29/01:30am 9.4 WNW 11 15 1013.6 - 0.6 - - - - - - -
29/01:00am 10.0 WNW 12 15 1013.4 - 0.6 - - - - - - -
29/12:30am 9.8 W 9 13 1013.5 - 0.6 - - - - - - -
29/12:00am 10.1 W 11 16 1013.5 - 0.2 - - - - - - -
 
Date/Time
EST
Temp

°C
Wind Pressure Rain
since 9am
mm
Weather Cloud Vis
km
Sea
Height
m
Swell
Dir
 
Speed
knots
Gust
knots
hPa Trend Height
m
Period
s
Dir
28/11:30pm 9.8 W 9 14 1013.5 - 0.2 - - - - - - -
28/11:00pm 9.8 W 11 14 1013.4 - 0.2 - - - - - - -
28/10:30pm 9.8 W 11 14 1013.2 - 0.2 - - - - - - -
28/10:00pm 9.8 WNW 9 14 1013.5 - 0.2 - - - - - - -
28/09:30pm 9.8 W 10 13 1013.3 - 0.2 - - - - - - -
28/09:00pm 10.0 W 13 17 1013.2 - 0.0 - - - - - - -
28/08:30pm 10.0 W 11 17 1012.9 - 0.0 - - - - - - -
28/08:00pm 9.8 W 12 16 1012.7 - 0.0 - - - - - - -
28/07:30pm 9.7 W 11 15 1012.3 - 0.0 - - - - - - -
28/07:00pm 9.8 W 11 14 1012.2 - 0.0 - - - - - - -
28/06:30pm 10.0 W 12 18 1012.0 - 0.0 - - - - - - -
28/06:00pm 8.9 WNW 8 11 1011.5 - 0.0 - - - - - - -
28/05:30pm 9.1 WNW 7 11 1011.1 - 0.0 - - - - - - -
28/05:00pm 10.0 WNW 10 12 1011.1 - 0.0 - - - - - - -
28/04:30pm 10.3 W 8 10 1010.9 - 0.0 - - - - - - -
28/04:00pm 11.3 WSW 13 19 1010.6 - 0.0 - - - - - - -
28/03:30pm 12.2 WSW 13 19 1010.3 - 0.0 - - - - - - -
28/03:00pm 13.3 WSW 13 18 1009.9 - 0.0 - - - - - - -
28/02:30pm 12.8 WSW 17 22 1009.7 - 0.0 - - - - - - -
28/02:00pm 13.4 SW 16 21 1009.4 - 0.0 - - - - - - -
28/01:30pm 13.2 WSW 17 23 1009.3 - 0.0 - - - - - - -
28/01:00pm 13.7 WSW 16 21 1009.1 - 0.0 - - - - - - -
28/12:30pm 12.9 WSW 14 19 1009.1 - 0.0 - - - - - - -
28/12:00pm 13.2 WSW 13 17 1009.1 - 0.0 - - - - - - -
28/11:30am 12.5 WSW 12 18 1009.2 - 0.0 - - - - - - -
28/11:00am 11.8 WSW 14 18 1009.4 - 0.0 - - - - - - -
28/10:30am 12.6 WSW 13 18 1009.2 - 0.0 - - - - - - -
28/10:00am 11.5 W 9 12 1009.1 - 0.0 - - - - - - -
28/09:30am 10.8 W 8 10 1009.0 - 0.0 - - - - - - -
28/09:00am 9.2 WNW 7 8 1008.9 - 0.4 - - - - - - -
28/08:30am 7.7 WNW 7 8 1008.9 - 0.4 - - - - - - -
28/08:00am 6.6 WNW 8 9 1008.6 - 0.4 - - - - - - -
28/07:30am 5.2 WNW 7 8 1008.3 - 0.4 - - - - - - -
28/07:00am 3.9 WNW 6 7 1008.1 - 0.4 - - - - - - -
28/06:30am 3.3 WNW 5 6 1008.0 - 0.4 - - - - - - -
28/06:00am 3.4 WNW 5 6 1007.7 - 0.4 Recent precip. - - - - - -
28/05:30am 3.0 WNW 5 6 1007.5 - 0.4 - - - - - - -
28/05:00am 3.6 WNW 5 6 1007.4 - 0.2 - - - - - - -
28/04:30am 4.1 WNW 6 7 1007.4 - 0.2 - - - - - - -
28/04:00am 3.6 WNW 6 7 1007.3 - 0.2 - - - - - - -
28/03:30am 3.7 NW 6 7 1007.3 - 0.2 - - - - - - -
28/03:00am 3.5 NW 6 6 1007.5 - 0.2 - - - - - - -
28/02:30am 4.1 WNW 6 7 1007.6 - 0.2 - - - - - - -
28/02:00am 5.2 WNW 8 9 1007.6 - 0.2 - - - - - - -
28/01:30am 4.8 WNW 7 8 1007.4 - 0.2 - - - - - - -
28/01:00am 4.2 WNW 7 7 1007.5 - 0.2 - - - - - - -
28/12:30am 4.1 NW 6 7 1007.6 - 0.2 - - - - - - -
28/12:00am 4.8 NW 6 7 1007.7 - 0.2 - - - - - - -
 
Date/Time
EST
Temp

°C
Wind Pressure Rain
since 9am
mm
Weather Cloud Vis
km
Sea
Height
m
Swell
Dir
 
Speed
knots
Gust
knots
hPa Trend Height
m
Period
s
Dir
27/11:30pm 5.0 WNW 7 8 1007.7 - 0.2 - - - - - - -
27/11:00pm 5.0 WNW 5 6 1007.7 - 0.2 - - - - - - -
27/10:30pm 5.8 NW 5 6 1007.8 - 0.2 - - - - - - -
27/10:00pm 5.9 NW 7 7 1007.9 - 0.2 - - - - - - -
27/09:30pm 6.3 NW 6 6 1007.9 - 0.2 - - - - - - -
27/09:00pm 7.1 NW 7 8 1007.7 - 0.2 - - - - - - -
27/08:30pm 7.7 W 5 6 1007.6 - 0.2 - - - - - - -
27/08:00pm 6.9 NW 6 6 1007.3 - 0.2 - - - - - - -
27/07:30pm 7.2 WNW 5 6 1007.2 - 0.2 - - - - - - -
27/07:00pm 7.8 WNW 6 7 1007.2 - 0.2 - - - - - - -
27/06:30pm 7.7 WNW 7 8 1007.1 - 0.2 - - - - - - -
27/06:00pm 7.9 WNW 7 8 1007.0 - 0.2 - - - - - - -
27/05:30pm 9.0 W 7 9 1006.7 - 0.2 - - - - - - -
27/05:00pm 9.9 WSW 9 13 1006.4 - 0.2 - - - - - - -
27/04:30pm 11.3 WSW 14 18 1006.0 - 0.2 - - - - - - -
27/04:00pm 12.3 WSW 14 18 1005.6 - 0.2 - - - - - - -
27/03:30pm 11.9 WSW 13 18 1005.5 - 0.2 - - - - - - -

Other Formats:

Comma delimited format used in spreadsheet applications
http://www.bom.gov.au/fwo/IDV60701/IDV60701.95890.axf

JavaScript Object Notation format (JSON) in row-major order
http://www.bom.gov.au/fwo/IDV60701/IDV60701.95890.json